Flight Track Log - Related Links

Times and Time Zones

All times are in EDT time to prevent confusion due to time zone crossing. See the CTL18 flight status page for this flight to view local times or setup timezone preferences in your user account.

Time Position Orientation Groundspeed Altitude Reporting Facility
EDT Latitude Longitude Course Direction KTS MPH feet Rate Location/Type
Mon 07:59:00 PM 43.3619 -84.0057 160° South  Level Estimated
Mon 08:00:00 PM 43.3366 -83.9838 148° Southeast  Level FlightAware Approximate
Mon 08:01:00 PM 43.3080 -83.9718 160° South  Level Estimated
Mon 08:02:00 PM 43.2807 -83.9553 156° South  Level FlightAware Approximate
Mon 08:03:00 PM 43.2533 -83.9388 156° South  Level FlightAware Approximate
Mon 08:04:00 PM 43.2247 -83.9271 163° South  Level Estimated
Mon 08:05:00 PM 43.1965 -83.9134 161° South  Level FlightAware Approximate
Mon 08:06:00 PM 43.1683 -83.8997 161° South  Level FlightAware Approximate
Mon 08:07:00 PM 43.1401 -83.8861 161° South  Level FlightAware Approximate
Mon 08:07:52 PM 42.9469 -83.7942 161° South 157 181 5,100  Level Cleveland Center
Mon 08:08:00 PM 43.1115 -83.8746 160° South  Level Estimated
Mon 08:08:53 PM 42.9078 -83.7750 160° South 160 184 5,100  Level Cleveland Center
Mon 08:09:00 PM 43.0835 -83.8603 160° South  Level FlightAware Approximate
Mon 08:09:54 PM 42.8669 -83.7503 156° South 157 181 5,000  Level Cleveland Center
Mon 08:10:00 PM 43.0555 -83.8461 160° South  Level FlightAware Approximate
Mon 08:10:55 PM 42.8256 -83.7342 164° South 155 178 5,000  Level Cleveland Center
Mon 08:11:00 PM 43.0275 -83.8318 160° South  Level FlightAware Approximate
Mon 08:11:57 PM 42.7800 -83.7233 170° South 153 176 5,000  Level Cleveland Center
Mon 08:12:00 PM 42.9995 -83.8176 160° South  Level FlightAware Approximate
Mon 08:12:58 PM 42.7386 -83.7100 167° South 154 177 5,000  Level Cleveland Center
Mon 08:13:58 PM 42.6972 -83.6994 169° South 153 176 5,000 -98 Level Cleveland Center
Mon 08:15:00 PM 42.6519 -83.6858 168° South 157 181 4,800 -244 Descending Cleveland Center
Mon 08:16:01 PM 42.6086 -83.6694 164° South 169 194 4,500 -344 Descending Cleveland Center
Mon 08:17:02 PM 42.5631 -83.6506 163° South 163 188 4,100 -397 Descending Cleveland Center
Mon 08:18:02 PM 42.5175 -83.6369 168° South 167 192 3,700 -347 Descending Cleveland Center
Mon 08:19:03 PM 42.4722 -83.6206 165° South 164 189 3,400 -295 Descending Cleveland Center
Mon 08:20:04 PM 42.4267 -83.6044 165° South 166 191 3,100 -246 Descending Cleveland Center
Mon 08:21:05 PM 42.3814 -83.5853 163° South 165 190 2,900 -246 Descending Cleveland Center
Mon 08:22:06 PM 42.3403 -83.5667 161° South 166 191 2,600 -344 Descending Cleveland Center
Mon 08:23:07 PM 42.2969 -83.5419 157° South 158 182 2,200 -689 Descending Cleveland Center
Mon 08:24:08 PM 42.2558 -83.5233 161° South 148 170 1,200 -984 Descending Cleveland Center
Mon 08:26:00 PM 42.2333 -83.5167 160° South  Level FlightAware Approximate
Mon 08:33:00 PM 42.2393 -83.5310 160° South  Level Estimated

Login

Don't have an account? Register now (free) for customized features, flight alerts, and more!